Pagina principale
METAR-TAF:

METAR-TAF

Aeroporti :

Aeroporto di Dušanbe

Dušanbe, Tagikistan

latitudine: 38-33N, longitudine: 068-47E, altezza: 803 m

Osservazione

Il bollettino è stato emesso 24 minuti fa, alle 00:00 UTC
Vento 2 kt da ovest
Temperature 3°C
Umidità 93%
Pressione 1024 hPa
Visibilità 10 km o più

METAR: UTDD 210000Z 28001MPS 9999 NSC 03/02 Q1024 R09/19//60 NOSIG RMK QFE699/0932

Ora: 05:24 (00:24 UTC)

Previsione

Il bollettino è stato emesso 3 ore e 24 minuti fa, alle 21:00 UTC
Previsione valida dal 20 alle 22 UTC al 21 alle 10 UTC
Vento 4 kt da direzioni variabili
Visibilità: 3100 m
Nubi sparse ad un'altezza di 1100 ft
Nubi sparse ad un'altezza di 3000 ft, Cumulonembo.
foschia, fumo
Evoluzione graduale
dal 21 alle 01 UTC al 21 alle 03 UTC
Visibilità: 1000 m
foschia, fumo

TAF: UTDD 202100Z 2022/2110 VRB02MPS 3100 BR FU SCT011 SCT030CB BECMG 2101/2103 1000 BR FU

Osservazioni e previsioni meteorologiche di più di 4000 aeroporti (messaggi METAR e TAF).

Le stazioni disponibili sono rappresentate dai dischi gialli e rossi sulla carta.

Puntare il mouse per vedere il nome della stazione.

Clicca sopra per visualizzare le osservazioni e previsioni meteorologiche.

Per cambiare la mappa : fare clic sui pulsanti verdi con una croce nera per ingrandire, il pulsante verde con un trattino per diminuire, o sulla freccia verde per le mappe adiacenti.


METAR-TAF: